Time;durP1;ratioP1;P1;durP2;ratioP2;P2;SDS_P1;SDS_P2;PMS_P1;PMS_P2;Temp;Humidity;BMP_temperature;BMP_pressure;BME280_temperature;BME280_humidity;BME280_pressure;Samples;Min_cycle;Max_cycle;Signal;HPM_P1;HPM_P2
2024/02/20 00:01:39;;;;;;;5.47;3.00;;;;;;;;;;4899928;29;20084;-83
2024/02/20 00:04:25;;;;;;;5.15;3.22;;;;;;;;;;4899434;29;20063;-83
2024/02/20 00:07:10;;;;;;;5.97;2.83;;;;;;;;;;4902451;29;20031;-82
2024/02/20 00:09:55;;;;;;;7.95;3.05;;;;;;;;;;4896761;29;20051;-81
2024/02/20 00:12:42;;;;;;;9.32;3.50;;;;;;;;;;4898990;29;20052;-82
2024/02/20 00:15:27;;;;;;;6.93;2.60;;;;;;;;;;4900853;29;20039;-82
2024/02/20 00:18:12;;;;;;;5.22;2.60;;;;;;;;;;4901492;29;20032;-82
2024/02/20 00:20:58;;;;;;;6.82;3.58;;;;;;;;;;4890905;29;20030;-82
2024/02/20 00:23:44;;;;;;;6.13;2.95;;;;;;;;;;4896437;29;20047;-82
2024/02/20 00:26:29;;;;;;;6.20;3.60;;;;;;;;;;4912176;29;20051;-83
2024/02/20 00:29:14;;;;;;;6.07;2.88;;;;;;;;;;4914345;29;20036;-83
2024/02/20 00:32:00;;;;;;;7.20;2.80;;;;;;;;;;4898219;29;20135;-83
2024/02/20 00:34:47;;;;;;;5.95;3.40;;;;;;;;;;4897533;29;20142;-82
2024/02/20 00:37:32;;;;;;;6.22;2.80;;;;;;;;;;4891198;29;20039;-82
2024/02/20 00:40:18;;;;;;;5.38;3.38;;;;;;;;;;4897316;29;20040;-83
2024/02/20 00:43:03;;;;;;;6.22;3.33;;;;;;;;;;4903717;29;20034;-83
2024/02/20 00:45:49;;;;;;;3.40;2.40;;;;;;;;;;4899331;29;20036;-84
2024/02/20 00:48:35;;;;;;;6.63;3.13;;;;;;;;;;4896644;29;20035;-83
2024/02/20 00:51:22;;;;;;;4.75;2.90;;;;;;;;;;4902368;29;20038;-83
2024/02/20 00:54:07;;;;;;;6.72;3.30;;;;;;;;;;4899806;29;20024;-83
2024/02/20 00:56:52;;;;;;;5.97;2.67;;;;;;;;;;4909638;29;20115;-83
2024/02/20 00:59:38;;;;;;;5.68;2.45;;;;;;;;;;4900708;29;20095;-82
2024/02/20 01:02:23;;;;;;;4.88;2.63;;;;;;;;;;4904101;29;20044;-82
2024/02/20 01:05:09;;;;;;;5.22;2.47;;;;;;;;;;4906976;29;20123;-82
2024/02/20 01:07:57;;;;;;;4.78;2.47;;;;;;;;;;4904552;29;20051;-83
2024/02/20 01:10:42;;;;;;;5.38;2.95;;;;;;;;;;4899594;29;20024;-82
2024/02/20 01:13:27;;;;;;;7.05;3.17;;;;;;;;;;4899527;29;20054;-82
2024/02/20 01:16:12;;;;;;;4.18;2.50;;;;;;;;;;4898567;29;20428;-82
2024/02/20 01:18:58;;;;;;;5.90;2.40;;;;;;;;;;4905088;29;20744;-82
2024/02/20 01:21:43;;;;;;;4.70;2.72;;;;;;;;;;4910430;29;20087;-82
2024/02/20 01:24:28;;;;;;;5.60;2.85;;;;;;;;;;4899898;29;20147;-82
2024/02/20 01:27:14;;;;;;;7.00;2.50;;;;;;;;;;4907789;29;20082;-82
2024/02/20 01:30:00;;;;;;;4.63;2.55;;;;;;;;;;4898815;29;20103;-82
2024/02/20 01:32:45;;;;;;;5.32;2.35;;;;;;;;;;4897192;29;20042;-83
2024/02/20 01:35:30;;;;;;;4.05;2.30;;;;;;;;;;4901902;29;20044;-83
2024/02/20 01:38:15;;;;;;;4.07;2.33;;;;;;;;;;4900002;29;20060;-83
2024/02/20 01:41:01;;;;;;;5.50;2.63;;;;;;;;;;4902188;29;20026;-82
2024/02/20 01:43:49;;;;;;;7.03;3.15;;;;;;;;;;4897791;29;20035;-82
2024/02/20 01:46:34;;;;;;;4.10;2.38;;;;;;;;;;4899888;29;20028;-84
2024/02/20 01:49:19;;;;;;;4.07;2.53;;;;;;;;;;4898956;29;20035;-83
2024/02/20 01:52:08;;;;;;;6.05;3.10;;;;;;;;;;4884282;29;20232;-84
2024/02/20 01:54:59;;;;;;;7.53;2.83;;;;;;;;;;4891363;29;20116;-83
2024/02/20 01:57:45;;;;;;;5.53;2.72;;;;;;;;;;4901531;29;20322;-81
2024/02/20 02:00:30;;;;;;;9.25;3.35;;;;;;;;;;4897208;29;20117;-82
2024/02/20 02:03:16;;;;;;;7.18;2.28;;;;;;;;;;4899038;29;20032;-82
2024/02/20 02:06:02;;;;;;;5.72;2.85;;;;;;;;;;4900060;29;20543;-82
2024/02/20 02:08:47;;;;;;;4.70;2.88;;;;;;;;;;4903265;29;20036;-82
2024/02/20 02:11:39;;;;;;;6.38;2.60;;;;;;;;;;4899667;29;20063;-82
2024/02/20 02:14:24;;;;;;;5.35;1.77;;;;;;;;;;4896562;29;20079;-82
2024/02/20 02:17:09;;;;;;;4.25;2.30;;;;;;;;;;4897110;29;20032;-82
2024/02/20 02:19:55;;;;;;;4.97;2.95;;;;;;;;;;4898066;29;20054;-82
2024/02/20 02:22:40;;;;;;;6.15;2.67;;;;;;;;;;4901181;29;20087;-83
2024/02/20 02:25:25;;;;;;;6.63;4.32;;;;;;;;;;4903164;29;20059;-83
2024/02/20 02:28:11;;;;;;;6.82;3.13;;;;;;;;;;4898252;29;20515;-83
2024/02/20 02:30:57;;;;;;;5.32;2.92;;;;;;;;;;4919378;29;20100;-82
2024/02/20 02:33:46;;;;;;;5.25;2.33;;;;;;;;;;4900039;29;20582;-82
2024/02/20 02:36:32;;;;;;;10.80;2.37;;;;;;;;;;4907563;29;20044;-83
2024/02/20 02:39:20;;;;;;;4.90;2.38;;;;;;;;;;4912739;29;20035;-82
2024/02/20 02:42:05;;;;;;;8.48;3.00;;;;;;;;;;4915688;29;20032;-82
2024/02/20 02:44:51;;;;;;;4.55;2.13;;;;;;;;;;4906822;29;20107;-82
2024/02/20 02:47:36;;;;;;;4.80;2.35;;;;;;;;;;4898676;29;20024;-82
2024/02/20 02:50:21;;;;;;;6.50;2.92;;;;;;;;;;4906626;29;20039;-82
2024/02/20 02:53:07;;;;;;;8.95;3.22;;;;;;;;;;4904557;29;20067;-82
2024/02/20 02:55:56;;;;;;;7.85;2.20;;;;;;;;;;4902170;29;20025;-82
2024/02/20 02:58:41;;;;;;;4.90;2.73;;;;;;;;;;4900924;29;20039;-82
2024/02/20 03:01:27;;;;;;;4.43;2.25;;;;;;;;;;4896995;29;20047;-82
2024/02/20 03:04:13;;;;;;;5.20;2.03;;;;;;;;;;4913774;29;20036;-82
2024/02/20 03:06:58;;;;;;;12.40;3.42;;;;;;;;;;4935711;29;20042;-83
2024/02/20 03:09:43;;;;;;;11.15;3.30;;;;;;;;;;4946070;29;20024;-82
2024/02/20 03:12:29;;;;;;;6.63;2.83;;;;;;;;;;4944771;29;20047;-82
2024/02/20 03:15:15;;;;;;;5.45;2.55;;;;;;;;;;4953140;28;20095;-83
2024/02/20 03:18:00;;;;;;;6.68;2.67;;;;;;;;;;4941290;28;20032;-84
2024/02/20 03:20:46;;;;;;;6.72;2.55;;;;;;;;;;4923285;29;20076;-82
2024/02/20 03:23:34;;;;;;;10.70;2.78;;;;;;;;;;4906950;29;20039;-83
2024/02/20 03:26:20;;;;;;;8.68;2.40;;;;;;;;;;4900916;29;20029;-83
2024/02/20 03:29:07;;;;;;;9.07;3.17;;;;;;;;;;4902519;29;20047;-82
2024/02/20 03:31:52;;;;;;;10.68;2.83;;;;;;;;;;4913106;29;20479;-83
2024/02/20 03:34:37;;;;;;;10.90;3.17;;;;;;;;;;4905964;29;20036;-82
2024/02/20 03:37:23;;;;;;;10.82;3.35;;;;;;;;;;4902508;29;20032;-81
2024/02/20 03:40:08;;;;;;;7.95;2.50;;;;;;;;;;4903986;29;20369;-82
2024/02/20 03:42:54;;;;;;;9.13;2.55;;;;;;;;;;4921365;29;20123;-82
2024/02/20 03:45:40;;;;;;;9.75;3.08;;;;;;;;;;4899849;29;20115;-82
2024/02/20 03:48:25;;;;;;;8.88;2.40;;;;;;;;;;4901114;29;20028;-82
2024/02/20 03:51:10;;;;;;;6.68;2.22;;;;;;;;;;4908661;29;20028;-82
2024/02/20 03:53:56;;;;;;;8.45;2.47;;;;;;;;;;4906007;29;20119;-82
2024/02/20 03:56:41;;;;;;;8.70;3.28;;;;;;;;;;4921564;29;20110;-82
2024/02/20 03:59:27;;;;;;;9.02;2.53;;;;;;;;;;4910603;29;20099;-82
2024/02/20 04:02:12;;;;;;;7.00;2.67;;;;;;;;;;4910373;29;20094;-82
2024/02/20 04:04:57;;;;;;;6.53;2.92;;;;;;;;;;4919540;29;20075;-81
2024/02/20 04:07:44;;;;;;;5.45;2.05;;;;;;;;;;4895943;29;20028;-83
2024/02/20 04:10:29;;;;;;;8.18;2.80;;;;;;;;;;4896799;29;20032;-84
2024/02/20 04:13:15;;;;;;;8.05;2.45;;;;;;;;;;4903967;29;20051;-83
2024/02/20 04:16:00;;;;;;;7.13;2.97;;;;;;;;;;4905597;29;20083;-81
2024/02/20 04:18:45;;;;;;;9.75;2.80;;;;;;;;;;4922009;29;20059;-82
2024/02/20 04:21:31;;;;;;;9.20;3.10;;;;;;;;;;4908019;29;20035;-81
2024/02/20 04:24:16;;;;;;;13.80;4.30;;;;;;;;;;4905658;29;20036;-82
2024/02/20 04:27:01;;;;;;;10.05;2.85;;;;;;;;;;4895290;29;20036;-82
2024/02/20 04:29:47;;;;;;;6.53;2.20;;;;;;;;;;4918364;29;20072;-82
2024/02/20 04:32:32;;;;;;;9.98;3.67;;;;;;;;;;4898302;29;20024;-82
2024/02/20 04:35:17;;;;;;;6.75;2.38;;;;;;;;;;4899865;29;20067;-82
2024/02/20 04:38:02;;;;;;;9.05;2.58;;;;;;;;;;4902101;29;20032;-82
2024/02/20 04:40:51;;;;;;;8.05;2.38;;;;;;;;;;4913071;29;20040;-82
2024/02/20 04:43:37;;;;;;;4.97;2.07;;;;;;;;;;4902093;29;20046;-83
2024/02/20 04:46:25;;;;;;;10.10;2.92;;;;;;;;;;4898984;29;20026;-82
2024/02/20 04:49:11;;;;;;;7.70;2.38;;;;;;;;;;4908308;29;20039;-82
2024/02/20 04:51:56;;;;;;;8.48;3.15;;;;;;;;;;4885415;29;20094;-82
2024/02/20 04:54:42;;;;;;;12.02;4.45;;;;;;;;;;4901445;29;20032;-82
2024/02/20 04:57:27;;;;;;;12.93;4.32;;;;;;;;;;4897984;29;20031;-82
2024/02/20 05:00:13;;;;;;;14.73;4.43;;;;;;;;;;4900815;29;20483;-81
2024/02/20 05:02:58;;;;;;;13.02;3.67;;;;;;;;;;4894115;29;20063;-81
2024/02/20 05:05:43;;;;;;;10.40;3.45;;;;;;;;;;4905758;29;20032;-81
2024/02/20 05:08:29;;;;;;;17.83;3.35;;;;;;;;;;4887724;29;20127;-81
2024/02/20 05:11:14;;;;;;;11.65;2.72;;;;;;;;;;4896390;29;20032;-81
2024/02/20 05:14:01;;;;;;;11.70;2.50;;;;;;;;;;4895643;29;20127;-81
2024/02/20 05:16:46;;;;;;;7.85;2.97;;;;;;;;;;4896015;29;20028;-81
2024/02/20 05:19:32;;;;;;;13.25;2.47;;;;;;;;;;4894567;29;20032;-82
2024/02/20 05:22:17;;;;;;;7.28;2.33;;;;;;;;;;4889393;29;20033;-82
2024/02/20 05:25:02;;;;;;;9.07;3.42;;;;;;;;;;4891793;29;20020;-82
2024/02/20 05:27:47;;;;;;;10.02;2.95;;;;;;;;;;4902275;29;20642;-81
2024/02/20 05:30:34;;;;;;;9.75;3.13;;;;;;;;;;4894080;29;20025;-81
2024/02/20 05:33:19;;;;;;;12.85;3.20;;;;;;;;;;4902906;29;20028;-80
2024/02/20 05:36:04;;;;;;;9.82;2.80;;;;;;;;;;4893544;29;20471;-81
2024/02/20 05:38:50;;;;;;;10.60;2.70;;;;;;;;;;4896405;29;20072;-81
2024/02/20 05:41:35;;;;;;;12.95;2.92;;;;;;;;;;4906220;29;20032;-82
2024/02/20 05:44:20;;;;;;;9.65;3.53;;;;;;;;;;4898539;29;20024;-81
2024/02/20 05:47:05;;;;;;;13.32;2.55;;;;;;;;;;4905862;29;20301;-81
2024/02/20 05:49:51;;;;;;;5.82;2.45;;;;;;;;;;4911958;29;20102;-82
2024/02/20 05:52:39;;;;;;;6.90;2.90;;;;;;;;;;4898636;29;21037;-81
2024/02/20 05:55:25;;;;;;;10.15;2.95;;;;;;;;;;4899854;29;20032;-83
2024/02/20 05:58:10;;;;;;;5.55;2.42;;;;;;;;;;4896733;29;20072;-82
2024/02/20 06:00:55;;;;;;;8.93;3.15;;;;;;;;;;4908787;29;20064;-87
2024/02/20 06:03:41;;;;;;;13.40;4.05;;;;;;;;;;4897370;29;20034;-82
2024/02/20 06:06:27;;;;;;;14.02;3.80;;;;;;;;;;4898556;29;20035;-81
2024/02/20 06:09:12;;;;;;;7.10;2.53;;;;;;;;;;4899327;29;20046;-80
2024/02/20 06:11:59;;;;;;;13.75;3.10;;;;;;;;;;4896931;29;20046;-82
2024/02/20 06:14:44;;;;;;;11.93;4.05;;;;;;;;;;4921558;29;20061;-81
2024/02/20 06:17:29;;;;;;;9.88;3.28;;;;;;;;;;4910532;29;20143;-81
2024/02/20 06:20:15;;;;;;;9.90;2.67;;;;;;;;;;4910774;29;20023;-81
2024/02/20 06:23:00;;;;;;;9.90;4.05;;;;;;;;;;4913652;29;20028;-84
2024/02/20 06:25:46;;;;;;;7.47;2.47;;;;;;;;;;4914956;29;20032;-83
2024/02/20 06:28:32;;;;;;;12.20;2.92;;;;;;;;;;4909855;29;20066;-85
2024/02/20 06:31:17;;;;;;;11.65;3.10;;;;;;;;;;4909230;29;20062;-86
2024/02/20 06:34:04;;;;;;;8.13;2.10;;;;;;;;;;4908322;29;20142;-86
2024/02/20 06:36:49;;;;;;;10.40;2.75;;;;;;;;;;4911680;29;20095;-86
2024/02/20 06:39:34;;;;;;;8.02;2.30;;;;;;;;;;4911552;29;20024;-87
2024/02/20 06:42:21;;;;;;;9.65;2.25;;;;;;;;;;4911562;29;20017;-86
2024/02/20 06:45:06;;;;;;;8.93;2.30;;;;;;;;;;4911577;29;20035;-86
2024/02/20 06:47:52;;;;;;;12.93;3.15;;;;;;;;;;4898071;29;20024;-86
2024/02/20 06:50:37;;;;;;;13.20;3.40;;;;;;;;;;4898096;29;20020;-86
2024/02/20 06:53:23;;;;;;;14.70;3.53;;;;;;;;;;4911117;29;20032;-87
2024/02/20 06:56:08;;;;;;;11.13;3.03;;;;;;;;;;4911309;29;20012;-86
2024/02/20 06:58:53;;;;;;;8.13;3.03;;;;;;;;;;4910744;29;20028;-87
2024/02/20 07:01:40;;;;;;;9.43;3.22;;;;;;;;;;4911629;29;20153;-87
2024/02/20 07:04:28;;;;;;;12.52;2.83;;;;;;;;;;4910971;29;20029;-86
2024/02/20 07:07:14;;;;;;;11.52;3.50;;;;;;;;;;4910981;29;20047;-87
2024/02/20 07:10:00;;;;;;;10.40;3.08;;;;;;;;;;4911047;29;20028;-87
2024/02/20 07:12:45;;;;;;;9.27;2.85;;;;;;;;;;4911422;29;20068;-87
2024/02/20 07:15:30;;;;;;;11.80;3.10;;;;;;;;;;4898327;29;20103;-87
2024/02/20 07:18:16;;;;;;;11.07;3.60;;;;;;;;;;4886354;29;20024;-86
2024/02/20 07:21:03;;;;;;;14.23;5.40;;;;;;;;;;4897823;29;20024;-86
2024/02/20 07:23:48;;;;;;;13.02;3.97;;;;;;;;;;4897542;29;20032;-87
2024/02/20 07:26:34;;;;;;;10.95;3.83;;;;;;;;;;4897471;29;20028;-86
2024/02/20 07:29:19;;;;;;;13.02;4.30;;;;;;;;;;4897428;29;20107;-86
2024/02/20 07:32:05;;;;;;;9.48;2.75;;;;;;;;;;4897750;29;20087;-87
2024/02/20 07:34:50;;;;;;;15.88;4.20;;;;;;;;;;4897409;29;20061;-86
2024/02/20 07:37:36;;;;;;;11.85;3.40;;;;;;;;;;4897398;29;20439;-87
2024/02/20 07:40:21;;;;;;;17.73;4.03;;;;;;;;;;4896989;29;20034;-87
2024/02/20 07:43:07;;;;;;;11.57;2.65;;;;;;;;;;4889742;29;20028;-87
2024/02/20 07:45:52;;;;;;;8.95;2.60;;;;;;;;;;4898105;29;20031;-86
2024/02/20 07:48:37;;;;;;;14.15;4.20;;;;;;;;;;4898754;29;20475;-86
2024/02/20 07:51:23;;;;;;;14.27;3.55;;;;;;;;;;4897117;29;20039;-87
2024/02/20 07:54:08;;;;;;;9.82;2.85;;;;;;;;;;4897121;29;20024;-87
2024/02/20 07:56:54;;;;;;;11.75;3.72;;;;;;;;;;4896943;29;20035;-86
2024/02/20 07:59:39;;;;;;;14.43;3.90;;;;;;;;;;4896610;29;20032;-85
2024/02/20 08:02:25;;;;;;;10.45;3.65;;;;;;;;;;4896647;29;20095;-86
2024/02/20 08:05:11;;;;;;;12.48;2.88;;;;;;;;;;4897371;29;20028;-86
2024/02/20 08:07:57;;;;;;;15.75;3.70;;;;;;;;;;4896302;29;20020;-85
2024/02/20 08:10:42;;;;;;;10.60;2.80;;;;;;;;;;4896752;29;20028;-85
2024/02/20 08:13:27;;;;;;;9.65;3.78;;;;;;;;;;4900494;29;20047;-86
2024/02/20 08:16:13;;;;;;;13.15;3.25;;;;;;;;;;4896179;29;20031;-86
2024/02/20 08:19:00;;;;;;;19.65;4.43;;;;;;;;;;4896256;29;20028;-85
2024/02/20 08:21:46;;;;;;;15.20;3.83;;;;;;;;;;4898836;29;20044;-86
2024/02/20 08:24:31;;;;;;;14.00;3.30;;;;;;;;;;4896536;29;20056;-86
2024/02/20 08:27:16;;;;;;;9.90;3.22;;;;;;;;;;4896766;29;20471;-87
2024/02/20 08:30:02;;;;;;;14.75;3.72;;;;;;;;;;4896370;29;20480;-86
2024/02/20 08:32:47;;;;;;;15.25;3.33;;;;;;;;;;4896336;29;20035;-87
2024/02/20 08:35:32;;;;;;;12.90;3.60;;;;;;;;;;4895885;29;20035;-86
2024/02/20 08:38:17;;;;;;;14.73;3.38;;;;;;;;;;4896600;29;20039;-87
2024/02/20 08:41:03;;;;;;;15.82;4.07;;;;;;;;;;4897058;29;20024;-86
2024/02/20 08:43:50;;;;;;;12.73;3.25;;;;;;;;;;4895696;29;20035;-86
2024/02/20 08:46:35;;;;;;;14.98;5.45;;;;;;;;;;4899296;29;20134;-86
2024/02/20 08:49:20;;;;;;;14.32;4.00;;;;;;;;;;4885045;29;20066;-85
2024/02/20 08:52:06;;;;;;;18.13;4.45;;;;;;;;;;4896002;29;20036;-87
2024/02/20 08:54:51;;;;;;;18.05;3.90;;;;;;;;;;4897050;29;20028;-86
2024/02/20 08:57:36;;;;;;;14.07;3.97;;;;;;;;;;4884461;29;20083;-87
2024/02/20 09:00:30;;;;;;;18.33;3.78;;;;;;;;;;4896817;29;20518;-87
2024/02/20 09:03:15;;;;;;;9.15;3.80;;;;;;;;;;4896491;29;20063;-86
2024/02/20 09:06:02;;;;;;;17.38;4.28;;;;;;;;;;4906692;29;20419;-87
2024/02/20 09:08:48;;;;;;;11.98;3.40;;;;;;;;;;4898167;29;20074;-86
2024/02/20 09:11:43;;;;;;;14.77;3.45;;;;;;;;;;4897850;29;20036;-87
2024/02/20 09:14:28;;;;;;;16.88;4.05;;;;;;;;;;4900533;29;20091;-89
2024/02/20 09:17:17;;;;;;;14.05;3.65;;;;;;;;;;4895290;29;20040;-86
2024/02/20 09:20:02;;;;;;;12.95;3.72;;;;;;;;;;4900197;29;20035;-88
2024/02/20 09:22:48;;;;;;;12.93;3.70;;;;;;;;;;4900032;29;20032;-86
2024/02/20 09:25:33;;;;;;;15.75;4.47;;;;;;;;;;4897379;29;20506;-87
2024/02/20 09:28:19;;;;;;;12.88;3.83;;;;;;;;;;4894534;29;20399;-87
2024/02/20 09:31:05;;;;;;;18.90;3.60;;;;;;;;;;4896810;29;20053;-88
2024/02/20 09:33:51;;;;;;;13.07;4.18;;;;;;;;;;4899915;29;20028;-87
2024/02/20 09:36:36;;;;;;;16.55;3.75;;;;;;;;;;4894511;29;20024;-87
2024/02/20 09:39:22;;;;;;;18.05;3.65;;;;;;;;;;4899997;29;20111;-86
2024/02/20 09:42:09;;;;;;;13.25;3.63;;;;;;;;;;4899626;29;20355;-87
2024/02/20 09:44:55;;;;;;;12.93;3.53;;;;;;;;;;4899172;29;20551;-86
2024/02/20 09:47:40;;;;;;;15.32;4.18;;;;;;;;;;4898172;29;20119;-87
2024/02/20 09:50:26;;;;;;;15.05;3.92;;;;;;;;;;4899057;29;20115;-87
2024/02/20 09:53:12;;;;;;;17.50;3.67;;;;;;;;;;4899309;29;20024;-88
2024/02/20 09:55:58;;;;;;;15.85;3.60;;;;;;;;;;4899099;29;20358;-89
2024/02/20 09:58:46;;;;;;;14.43;5.07;;;;;;;;;;4893731;29;20044;-86
2024/02/20 10:01:32;;;;;;;11.43;3.30;;;;;;;;;;4883839;29;20025;-84
2024/02/20 10:04:24;;;;;;;13.18;3.28;;;;;;;;;;4896083;29;20024;-89
2024/02/20 10:07:10;;;;;;;14.13;3.80;;;;;;;;;;4898127;29;20115;-86
2024/02/20 10:09:55;;;;;;;14.00;3.83;;;;;;;;;;4897707;29;20063;-85
2024/02/20 10:12:46;;;;;;;;;;;;;;;;;;4897934;29;20032;-83
2024/02/20 10:15:31;;;;;;;15.65;4.63;;;;;;;;;;4911424;29;19923;-84
2024/02/20 10:18:19;;;;;;;17.38;4.35;;;;;;;;;;4887151;29;20467;-85
2024/02/20 10:21:05;;;;;;;15.60;3.85;;;;;;;;;;4884981;29;20032;-85
2024/02/20 10:24:01;;;;;;;13.77;3.33;;;;;;;;;;4897103;29;20035;-85
2024/02/20 10:26:46;;;;;;;12.93;4.53;;;;;;;;;;4885194;29;20099;-85
2024/02/20 10:29:32;;;;;;;15.60;3.72;;;;;;;;;;4901503;29;20028;-83
2024/02/20 10:32:21;;;;;;;14.80;3.63;;;;;;;;;;4897671;29;20028;-84
2024/02/20 10:35:09;;;;;;;9.65;3.33;;;;;;;;;;4897660;29;20043;-84
2024/02/20 10:38:04;;;;;;;13.43;3.28;;;;;;;;;;4898064;29;20040;-87
2024/02/20 10:40:49;;;;;;;22.40;3.55;;;;;;;;;;4898228;29;20016;-88
2024/02/20 10:43:35;;;;;;;8.18;2.78;;;;;;;;;;4898291;29;20043;-87
2024/02/20 10:46:22;;;;;;;10.43;2.78;;;;;;;;;;4898286;29;20030;-87
2024/02/20 10:49:14;;;;;;;14.23;3.20;;;;;;;;;;4897062;29;20028;-88
2024/02/20 10:52:01;;;;;;;13.68;3.25;;;;;;;;;;4912467;29;20027;-87
2024/02/20 10:54:48;;;;;;;12.20;3.55;;;;;;;;;;4898395;29;20355;-85
2024/02/20 10:57:37;;;;;;;12.82;3.17;;;;;;;;;;4897750;29;20016;-86
2024/02/20 11:00:22;;;;;;;13.10;3.08;;;;;;;;;;4897979;29;20032;-85
2024/02/20 11:03:08;;;;;;;11.82;4.07;;;;;;;;;;4897913;29;20353;-88
2024/02/20 11:05:56;;;;;;;14.82;4.22;;;;;;;;;;4897487;29;20012;-86
2024/02/20 11:08:43;;;;;;;15.98;4.15;;;;;;;;;;4897768;29;20042;-87
2024/02/20 11:11:28;;;;;;;9.75;3.42;;;;;;;;;;4891692;29;20028;-86
2024/02/20 11:14:23;;;;;;;14.95;3.38;;;;;;;;;;4892435;29;20411;-86
2024/02/20 11:17:12;;;;;;;16.85;4.53;;;;;;;;;;4897561;29;20042;-86
2024/02/20 11:20:07;;;;;;;15.93;3.53;;;;;;;;;;4892971;29;20431;-87
2024/02/20 11:22:53;;;;;;;12.23;3.70;;;;;;;;;;4881989;29;20424;-86
2024/02/20 11:25:41;;;;;;;14.38;4.07;;;;;;;;;;4895936;29;20046;-87
2024/02/20 11:28:32;;;;;;;12.88;2.95;;;;;;;;;;4895724;29;20056;-86
2024/02/20 11:31:30;;;;;;;10.27;3.33;;;;;;;;;;4900745;29;20024;-86
2024/02/20 11:34:21;;;;;;;13.18;3.30;;;;;;;;;;4897500;29;20119;-86
2024/02/20 11:37:08;;;;;;;11.75;2.97;;;;;;;;;;4912776;29;20036;-88
2024/02/20 11:40:07;;;;;;;10.90;2.63;;;;;;;;;;4906645;29;20036;-87
2024/02/20 11:42:51;;;;;;;11.38;2.83;;;;;;;;;;4920547;29;20067;-87
2024/02/20 11:45:35;;;;;;;9.73;2.85;;;;;;;;;;4935441;29;20027;-89
2024/02/20 11:48:20;;;;;;;10.75;2.75;;;;;;;;;;4935797;29;20019;-88
2024/02/20 11:51:07;;;;;;;9.07;2.65;;;;;;;;;;4893481;29;20104;-88
2024/02/20 11:54:05;;;;;;;8.85;3.05;;;;;;;;;;4886172;29;20027;-88
2024/02/20 11:56:52;;;;;;;10.70;2.80;;;;;;;;;;4898702;29;20035;-91
2024/02/20 11:59:37;;;;;;;11.55;2.65;;;;;;;;;;4888012;29;20070;-88
2024/02/20 12:02:23;;;;;;;8.55;2.70;;;;;;;;;;4898408;29;20060;-87
2024/02/20 12:05:08;;;;;;;17.40;3.15;;;;;;;;;;4897429;29;20038;-86
2024/02/20 12:07:55;;;;;;;11.90;2.72;;;;;;;;;;4897647;29;20039;-86
2024/02/20 12:10:41;;;;;;;12.18;3.47;;;;;;;;;;4896900;29;20032;-86
2024/02/20 12:13:29;;;;;;;5.95;2.50;;;;;;;;;;4896669;29;20044;-86
2024/02/20 12:16:18;;;;;;;10.40;3.00;;;;;;;;;;4896257;29;20106;-85
2024/02/20 12:19:06;;;;;;;14.63;3.85;;;;;;;;;;4896441;29;20028;-85
2024/02/20 12:21:52;;;;;;;9.70;3.05;;;;;;;;;;4883244;29;20074;-84
2024/02/20 12:24:38;;;;;;;10.80;2.88;;;;;;;;;;4896887;29;20044;-87
2024/02/20 12:27:23;;;;;;;10.82;3.70;;;;;;;;;;4897671;29;20028;-88
2024/02/20 12:30:11;;;;;;;10.63;2.90;;;;;;;;;;4886945;29;20031;-86
2024/02/20 12:32:57;;;;;;;7.85;2.53;;;;;;;;;;4898027;29;20063;-88
2024/02/20 12:35:42;;;;;;;14.98;3.67;;;;;;;;;;4894906;29;20031;-88
2024/02/20 12:38:31;;;;;;;13.93;2.83;;;;;;;;;;4895956;29;20023;-86
2024/02/20 12:41:16;;;;;;;9.65;2.80;;;;;;;;;;4895851;29;20079;-87
2024/02/20 12:44:01;;;;;;;12.10;2.88;;;;;;;;;;4895858;29;20028;-87
2024/02/20 12:46:47;;;;;;;9.32;3.10;;;;;;;;;;4882994;29;20151;-87
2024/02/20 12:50:11;;;;;;;9.63;2.95;;;;;;;;;;4896743;29;20028;-85
2024/02/20 12:52:56;;;;;;;11.07;3.25;;;;;;;;;;4859782;29;20036;-88
2024/02/20 12:55:41;;;;;;;9.60;2.80;;;;;;;;;;4896604;29;20029;-84
2024/02/20 12:58:33;;;;;;;9.57;2.83;;;;;;;;;;4897000;29;20483;-85
2024/02/20 13:01:19;;;;;;;9.02;2.10;;;;;;;;;;4896925;29;20111;-89
2024/02/20 13:04:07;;;;;;;7.90;3.15;;;;;;;;;;4896013;29;20155;-88
2024/02/20 13:06:53;;;;;;;9.88;2.58;;;;;;;;;;4922044;29;20039;-87
2024/02/20 13:09:38;;;;;;;8.57;3.42;;;;;;;;;;4903053;29;20035;-87
2024/02/20 13:12:28;;;;;;;7.70;2.60;;;;;;;;;;4897404;29;20044;-87
2024/02/20 13:15:24;;;;;;;6.40;2.47;;;;;;;;;;4906751;29;20074;-87
2024/02/20 13:18:10;;;;;;;10.63;2.78;;;;;;;;;;4883718;29;20024;-88
2024/02/20 13:20:55;;;;;;;8.15;2.67;;;;;;;;;;4895527;29;20029;-87
2024/02/20 13:23:40;;;;;;;9.43;2.78;;;;;;;;;;4896229;29;20392;-88
2024/02/20 13:26:26;;;;;;;9.32;2.97;;;;;;;;;;4883352;29;20028;-86
2024/02/20 13:29:15;;;;;;;13.70;2.88;;;;;;;;;;4884048;29;20107;-87
2024/02/20 13:32:03;;;;;;;11.00;3.47;;;;;;;;;;4895989;29;20059;-87
2024/02/20 13:34:48;;;;;;;9.18;2.97;;;;;;;;;;4895668;29;20028;-89
2024/02/20 13:37:33;;;;;;;9.38;3.10;;;;;;;;;;4882251;29;20584;-85
2024/02/20 13:40:19;;;;;;;11.98;3.10;;;;;;;;;;4895731;29;20024;-87
2024/02/20 13:43:08;;;;;;;10.63;3.20;;;;;;;;;;4896792;29;20365;-86
2024/02/20 13:45:54;;;;;;;10.32;3.00;;;;;;;;;;4895424;29;20024;-87
2024/02/20 13:48:39;;;;;;;7.63;2.72;;;;;;;;;;4905083;29;20071;-87
2024/02/20 13:51:24;;;;;;;9.95;3.20;;;;;;;;;;4897311;29;20511;-88
2024/02/20 13:54:10;;;;;;;10.95;3.42;;;;;;;;;;4895675;29;20032;-87
2024/02/20 13:56:55;;;;;;;9.68;3.17;;;;;;;;;;4896127;29;20040;-88
2024/02/20 13:59:40;;;;;;;9.90;3.47;;;;;;;;;;4898207;29;20024;-88
2024/02/20 14:02:26;;;;;;;10.10;2.78;;;;;;;;;;4899555;29;20116;-88
2024/02/20 14:05:11;;;;;;;10.60;3.42;;;;;;;;;;4898818;29;20028;-88
2024/02/20 14:07:57;;;;;;;7.00;2.92;;;;;;;;;;4886056;29;20127;-88
2024/02/20 14:10:44;;;;;;;11.15;3.13;;;;;;;;;;4898801;29;20032;-87
2024/02/20 14:13:30;;;;;;;14.02;3.35;;;;;;;;;;4898371;29;20048;-87
2024/02/20 14:16:16;;;;;;;7.38;2.65;;;;;;;;;;4894732;29;20020;-87
2024/02/20 14:19:01;;;;;;;9.18;3.35;;;;;;;;;;4894578;29;20032;-88
2024/02/20 14:21:54;;;;;;;10.63;3.15;;;;;;;;;;4898162;29;20035;-87
2024/02/20 14:24:40;;;;;;;7.68;2.63;;;;;;;;;;4898661;29;20080;-88
2024/02/20 14:27:25;;;;;;;11.60;3.53;;;;;;;;;;4897842;29;20060;-87
2024/02/20 14:30:11;;;;;;;8.55;2.63;;;;;;;;;;4898357;29;20040;-87
2024/02/20 14:32:58;;;;;;;9.60;3.88;;;;;;;;;;4896038;29;20071;-88
2024/02/20 14:35:44;;;;;;;10.25;2.63;;;;;;;;;;4891052;29;20088;-88
2024/02/20 14:38:32;;;;;;;10.10;2.75;;;;;;;;;;4900174;29;20143;-87
2024/02/20 14:41:17;;;;;;;8.95;3.10;;;;;;;;;;4898440;29;20133;-87
2024/02/20 14:44:03;;;;;;;12.63;4.15;;;;;;;;;;4898527;29;20654;-88
2024/02/20 14:46:48;;;;;;;10.68;3.75;;;;;;;;;;4898335;29;20032;-88
2024/02/20 14:49:34;;;;;;;8.60;2.67;;;;;;;;;;4898469;29;20330;-87
2024/02/20 14:52:23;;;;;;;8.27;2.35;;;;;;;;;;4898940;29;20427;-88
2024/02/20 14:55:09;;;;;;;5.32;2.40;;;;;;;;;;4898430;29;20029;-88
2024/02/20 14:57:54;;;;;;;7.47;2.63;;;;;;;;;;4896832;29;20055;-88
2024/02/20 15:00:40;;;;;;;8.18;2.90;;;;;;;;;;4897756;29;20111;-88
2024/02/20 15:03:25;;;;;;;11.15;3.03;;;;;;;;;;4897022;29;20118;-87
2024/02/20 15:06:11;;;;;;;7.60;2.88;;;;;;;;;;4880407;29;20032;-87
2024/02/20 15:08:58;;;;;;;7.63;2.95;;;;;;;;;;4897290;29;20039;-87
2024/02/20 15:11:43;;;;;;;10.40;2.70;;;;;;;;;;4897683;29;20032;-88
2024/02/20 15:14:28;;;;;;;7.72;2.38;;;;;;;;;;4886371;29;20069;-88
2024/02/20 15:17:13;;;;;;;12.77;3.25;;;;;;;;;;4898051;29;20408;-89
2024/02/20 15:19:59;;;;;;;10.18;3.42;;;;;;;;;;4891798;29;20032;-86
2024/02/20 15:22:45;;;;;;;8.95;2.83;;;;;;;;;;4897167;29;20034;-87
2024/02/20 15:25:30;;;;;;;9.45;3.72;;;;;;;;;;4897348;29;20020;-87
2024/02/20 15:28:15;;;;;;;12.50;3.00;;;;;;;;;;4897601;29;20031;-85
2024/02/20 15:31:00;;;;;;;9.27;3.78;;;;;;;;;;4897932;29;20102;-85
2024/02/20 15:33:46;;;;;;;6.35;2.65;;;;;;;;;;4897173;29;20030;-86
2024/02/20 15:36:32;;;;;;;10.30;2.63;;;;;;;;;;4897614;29;20028;-87
2024/02/20 15:39:18;;;;;;;11.23;3.28;;;;;;;;;;4897508;29;20020;-86
2024/02/20 15:42:04;;;;;;;6.10;2.47;;;;;;;;;;4894994;29;20028;-86
2024/02/20 15:44:49;;;;;;;5.45;2.15;;;;;;;;;;4896530;29;20043;-89
2024/02/20 15:47:35;;;;;;;10.88;3.05;;;;;;;;;;4889033;29;20605;-79
2024/02/20 15:50:20;;;;;;;8.38;2.55;;;;;;;;;;4894229;29;20488;-77
2024/02/20 15:53:05;;;;;;;6.75;2.30;;;;;;;;;;4896024;29;20063;-76
2024/02/20 15:55:50;;;;;;;6.03;2.28;;;;;;;;;;4895703;29;20145;-77
2024/02/20 15:58:36;;;;;;;8.35;2.83;;;;;;;;;;4896127;29;20079;-77
2024/02/20 16:01:21;;;;;;;7.65;2.83;;;;;;;;;;4893777;29;20024;-76
2024/02/20 16:04:07;;;;;;;9.77;2.80;;;;;;;;;;4895947;29;20040;-77
2024/02/20 16:06:52;;;;;;;8.35;2.55;;;;;;;;;;4893693;29;20039;-89
2024/02/20 16:09:37;;;;;;;9.73;3.10;;;;;;;;;;4893328;29;20126;-88
2024/02/20 16:12:23;;;;;;;14.20;3.22;;;;;;;;;;4897183;29;20036;-87
2024/02/20 16:15:10;;;;;;;9.63;3.05;;;;;;;;;;4878171;29;20049;-88
2024/02/20 16:17:55;;;;;;;10.43;2.72;;;;;;;;;;4881307;29;20099;-88
2024/02/20 16:20:42;;;;;;;12.90;2.67;;;;;;;;;;4877799;29;20056;-88
2024/02/20 16:23:27;;;;;;;8.38;3.38;;;;;;;;;;4880638;29;20095;-89
2024/02/20 16:26:16;;;;;;;6.63;2.67;;;;;;;;;;4877867;29;20044;-89
2024/02/20 16:29:01;;;;;;;10.10;2.88;;;;;;;;;;4882029;29;20048;-91
2024/02/20 16:31:47;;;;;;;6.50;2.25;;;;;;;;;;4892682;29;20120;-89